createdAt,value
2023-03-02T00:00:18.772Z,19.70
2023-03-02T00:02:47.073Z,22.42
2023-03-02T00:05:17.815Z,21.55
2023-03-02T00:07:47.576Z,21.13
2023-03-02T00:10:15.936Z,19.90
2023-03-02T00:12:44.259Z,19.73
2023-03-02T00:15:12.923Z,24.48
2023-03-02T00:17:41.297Z,21.80
2023-03-02T00:20:12.799Z,21.50
2023-03-02T00:22:43.011Z,23.30
2023-03-02T00:25:14.182Z,23.95
2023-03-02T00:27:42.832Z,28.00
2023-03-02T00:30:13.942Z,25.67
2023-03-02T00:32:42.318Z,29.10
2023-03-02T00:35:11.458Z,32.75
2023-03-02T00:37:40.066Z,27.98
2023-03-02T00:40:12.336Z,27.92
2023-03-02T00:42:40.720Z,29.38
2023-03-02T00:45:10.512Z,29.30
2023-03-02T00:47:41.042Z,27.73
2023-03-02T00:50:11.689Z,33.08
2023-03-02T00:52:39.884Z,33.25
2023-03-02T00:55:09.391Z,33.25
2023-03-02T00:57:38.927Z,35.90
2023-03-02T01:00:09.139Z,38.13
2023-03-02T01:02:39.117Z,39.38
2023-03-02T01:05:08.204Z,42.60
2023-03-02T01:07:36.442Z,41.72
2023-03-02T01:10:08.073Z,42.85
2023-03-02T01:12:36.328Z,40.35
2023-03-02T01:15:08.004Z,47.00
2023-03-02T01:17:36.791Z,41.40
2023-03-02T01:20:08.779Z,44.53
2023-03-02T01:22:37.422Z,47.40
2023-03-02T01:25:09.026Z,45.35
2023-03-02T01:27:38.017Z,49.58
2023-03-02T01:30:10.459Z,51.45
2023-03-02T01:32:38.741Z,46.20
2023-03-02T01:35:08.161Z,48.42
2023-03-02T01:37:36.614Z,53.70
2023-03-02T01:40:09.181Z,50.83
2023-03-02T01:42:41.558Z,53.10
2023-03-02T01:45:53.732Z,56.35
2023-03-02T01:48:28.504Z,53.47
2023-03-02T01:50:57.392Z,54.20
2023-03-02T01:53:31.735Z,57.63
2023-03-02T01:56:01.751Z,59.58
2023-03-02T01:58:33.927Z,61.65
2023-03-02T02:01:03.972Z,55.95
2023-03-02T02:03:32.762Z,64.95
2023-03-02T02:06:11.658Z,61.33
2023-03-02T02:08:40.577Z,65.82
2023-03-02T02:11:08.899Z,69.95
2023-03-02T02:13:37.187Z,68.22
2023-03-02T02:16:08.370Z,69.07
2023-03-02T02:18:39.808Z,70.50
2023-03-02T02:21:09.621Z,70.70
2023-03-02T02:23:45.377Z,67.50
2023-03-02T02:26:25.821Z,70.70
2023-03-02T02:29:00.793Z,65.15
2023-03-02T02:31:36.783Z,67.97
2023-03-02T02:34:13.452Z,70.88
2023-03-02T02:36:46.598Z,72.20
2023-03-02T02:39:23.412Z,70.78
2023-03-02T02:41:56.995Z,74.60
2023-03-02T02:44:25.504Z,72.13
2023-03-02T02:46:53.815Z,78.38
2023-03-02T02:49:32.231Z,76.15
2023-03-02T02:52:01.216Z,73.03
2023-03-02T02:54:31.208Z,77.20
2023-03-02T02:57:02.956Z,71.75
2023-03-02T02:59:35.265Z,77.10
2023-03-02T03:02:05.306Z,76.15
2023-03-02T03:04:34.162Z,78.85
2023-03-02T03:07:06.717Z,71.05
2023-03-02T03:09:35.035Z,84.70
2023-03-02T03:12:12.396Z,88.75
2023-03-02T03:14:43.098Z,85.55
2023-03-02T03:17:13.304Z,80.72
2023-03-02T03:19:44.477Z,79.95
2023-03-02T03:22:16.696Z,80.90
2023-03-02T03:24:46.712Z,80.32
2023-03-02T03:27:19.745Z,78.03
2023-03-02T03:29:49.160Z,83.82
2023-03-02T03:32:20.735Z,80.60
2023-03-02T03:34:49.136Z,83.82
2023-03-02T03:37:20.942Z,82.28
2023-03-02T03:39:49.250Z,81.53
2023-03-02T03:42:19.159Z,83.28
2023-03-02T03:44:47.478Z,80.05
2023-03-02T03:47:15.694Z,86.07
2023-03-02T03:49:44.075Z,78.32
2023-03-02T03:52:12.246Z,80.68
2023-03-02T03:54:40.434Z,84.13
2023-03-02T03:57:10.684Z,85.57
2023-03-02T03:59:40.293Z,84.43
2023-03-02T04:02:08.511Z,80.50
2023-03-02T04:04:37.157Z,81.43
2023-03-02T04:07:08.256Z,81.18
2023-03-02T04:09:37.950Z,83.45
2023-03-02T04:12:09.880Z,75.47
2023-03-02T04:14:39.570Z,80.22
2023-03-02T04:17:08.104Z,78.97
2023-03-02T04:19:37.419Z,77.65
2023-03-02T04:22:08.778Z,72.88
2023-03-02T04:24:36.993Z,72.50
2023-03-02T04:27:05.657Z,71.28
2023-03-02T04:29:33.915Z,77.30
2023-03-02T04:32:03.686Z,74.80
2023-03-02T04:34:31.963Z,73.30
2023-03-02T04:37:01.044Z,75.70
2023-03-02T04:39:29.489Z,71.78
2023-03-02T04:41:57.769Z,77.85
2023-03-02T04:44:25.982Z,69.82
2023-03-02T04:46:54.308Z,72.45
2023-03-02T04:49:23.991Z,86.13
2023-03-02T04:51:52.305Z,78.93
2023-03-02T04:54:24.241Z,77.13
2023-03-02T04:56:53.152Z,77.20
2023-03-02T04:59:28.201Z,76.85
2023-03-02T05:01:59.140Z,77.32
2023-03-02T05:04:29.862Z,75.60
2023-03-02T05:06:58.611Z,75.25
2023-03-02T05:09:30.260Z,69.10
2023-03-02T05:12:01.718Z,74.38
2023-03-02T05:14:31.031Z,78.00
2023-03-02T05:16:59.704Z,79.97
2023-03-02T05:19:29.348Z,76.03
2023-03-02T05:21:57.572Z,76.45
2023-03-02T05:24:26.148Z,71.90
2023-03-02T05:26:54.446Z,71.00
2023-03-02T05:29:22.659Z,69.30
2023-03-02T05:31:51.641Z,67.30
2023-03-02T05:34:20.163Z,74.28
2023-03-02T05:36:49.711Z,75.45
2023-03-02T05:39:20.888Z,67.38
2023-03-02T05:41:49.121Z,63.80
2023-03-02T05:44:17.600Z,67.45
2023-03-02T05:46:45.881Z,70.82
2023-03-02T05:49:14.109Z,75.45
2023-03-02T05:51:42.289Z,66.90
2023-03-02T05:54:12.273Z,69.65
2023-03-02T05:56:40.729Z,67.28
2023-03-02T05:59:09.011Z,68.53
2023-03-02T06:01:37.307Z,66.90
2023-03-02T06:04:06.024Z,72.53
2023-03-02T06:06:34.402Z,64.47
2023-03-02T06:09:02.812Z,70.05
2023-03-02T06:11:32.398Z,63.67
2023-03-02T06:14:00.601Z,66.38
2023-03-02T06:16:28.876Z,69.82
2023-03-02T06:18:57.085Z,66.65
2023-03-02T06:21:25.287Z,72.80
2023-03-02T06:23:53.508Z,74.90
2023-03-02T06:26:21.750Z,68.35
2023-03-02T06:28:53.676Z,65.72
2023-03-02T06:31:22.783Z,68.05
2023-03-02T06:33:51.184Z,73.07
2023-03-02T06:36:19.519Z,72.18
2023-03-02T06:38:47.850Z,71.28
2023-03-02T06:41:18.794Z,73.18
2023-03-02T06:43:47.113Z,70.53
2023-03-02T06:46:16.737Z,76.95
2023-03-02T06:48:45.294Z,77.63
2023-03-02T06:51:13.724Z,73.78
2023-03-02T06:53:42.068Z,70.03
2023-03-02T06:56:10.418Z,76.70
2023-03-02T06:58:39.354Z,76.05
2023-03-02T07:01:08.853Z,66.50
2023-03-02T07:03:38.831Z,70.53
2023-03-02T07:06:07.599Z,65.30
2023-03-02T07:08:36.098Z,80.75
2023-03-02T07:11:07.523Z,71.63
2023-03-02T07:13:38.036Z,71.38
2023-03-02T07:16:10.987Z,75.93
2023-03-02T07:18:41.293Z,72.22
2023-03-02T07:21:09.686Z,79.43
2023-03-02T07:23:38.040Z,80.40
2023-03-02T07:26:08.845Z,81.93
2023-03-02T07:28:39.997Z,84.07
2023-03-02T07:31:09.217Z,75.32
2023-03-02T07:33:38.771Z,84.97
2023-03-02T07:36:09.758Z,79.75
2023-03-02T07:38:39.129Z,80.35
2023-03-02T07:41:11.107Z,85.53
2023-03-02T07:43:39.897Z,86.40
2023-03-02T07:46:08.254Z,84.03
2023-03-02T07:48:37.512Z,82.00
2023-03-02T07:51:08.356Z,79.80
2023-03-02T07:53:36.671Z,79.78
2023-03-02T07:56:08.873Z,83.40
2023-03-02T07:58:37.948Z,87.18
2023-03-02T08:01:08.898Z,85.93
2023-03-02T08:03:37.602Z,84.20
2023-03-02T08:06:10.647Z,87.13
2023-03-02T08:08:39.675Z,84.93
2023-03-02T08:11:09.425Z,86.32
2023-03-02T08:13:38.368Z,90.95
2023-03-02T08:16:09.418Z,86.65
2023-03-02T08:18:38.495Z,85.28
2023-03-02T08:21:12.776Z,88.85
2023-03-02T08:23:41.224Z,86.53
2023-03-02T08:26:11.722Z,83.10
2023-03-02T08:28:42.060Z,95.65
2023-03-02T08:31:11.208Z,87.57
2023-03-02T08:33:40.065Z,92.95
2023-03-02T08:36:14.481Z,87.38
2023-03-02T08:38:43.829Z,87.32
2023-03-02T08:41:15.176Z,83.22
2023-03-02T08:43:44.532Z,80.90
2023-03-02T08:46:18.170Z,75.95
2023-03-02T08:48:47.190Z,74.15
2023-03-02T08:51:19.080Z,77.80
2023-03-02T08:53:50.491Z,78.55
2023-03-02T08:56:21.223Z,71.65
2023-03-02T08:58:50.698Z,77.85
2023-03-02T09:01:22.699Z,72.80
2023-03-02T09:03:51.626Z,71.55
2023-03-02T09:06:21.726Z,63.78
2023-03-02T09:08:51.481Z,66.03
2023-03-02T09:11:20.182Z,65.93
2023-03-02T09:13:48.666Z,59.10
2023-03-02T09:16:20.548Z,59.45
2023-03-02T09:18:49.249Z,56.35
2023-03-02T09:21:21.508Z,53.67
2023-03-02T09:23:53.724Z,48.63
2023-03-02T09:26:22.011Z,58.97
2023-03-02T09:28:50.406Z,48.25
2023-03-02T09:31:18.742Z,49.83
2023-03-02T09:33:47.082Z,49.22
2023-03-02T09:36:26.356Z,43.78
2023-03-02T09:38:55.524Z,42.95
2023-03-02T09:42:22.001Z,40.78
2023-03-02T09:45:16.956Z,39.75
2023-03-02T09:48:00.129Z,36.15
2023-03-02T09:50:32.947Z,31.98
2023-03-02T09:53:28.920Z,34.78
2023-03-02T09:56:00.313Z,34.03
2023-03-02T09:58:35.103Z,37.00
2023-03-02T10:01:16.496Z,34.25
2023-03-02T10:03:53.843Z,33.90
2023-03-02T10:06:22.176Z,31.70
2023-03-02T10:08:52.227Z,34.00
2023-03-02T10:11:30.679Z,35.50
2023-03-02T10:14:07.197Z,33.53
2023-03-02T10:16:40.474Z,29.70
2023-03-02T10:19:17.740Z,31.75
2023-03-02T10:21:49.105Z,29.30
2023-03-02T10:24:32.107Z,28.67
2023-03-02T10:27:12.672Z,32.42
2023-03-02T10:29:50.722Z,28.33
2023-03-02T10:32:22.775Z,30.65
2023-03-02T10:34:53.086Z,28.58
2023-03-02T10:37:25.578Z,28.17
2023-03-02T10:39:55.343Z,28.40
2023-03-02T10:42:29.864Z,30.20
2023-03-02T10:45:08.900Z,33.17
2023-03-02T10:47:37.079Z,26.02
2023-03-02T10:50:05.797Z,28.75
2023-03-02T10:52:35.960Z,28.02
2023-03-02T10:55:08.144Z,28.80
2023-03-02T10:57:39.074Z,29.90
2023-03-02T11:00:19.474Z,26.02
2023-03-02T11:02:52.851Z,27.27
2023-03-02T11:05:27.382Z,32.05
2023-03-02T11:07:58.894Z,27.27
2023-03-02T11:10:32.058Z,27.60
2023-03-02T11:13:02.239Z,27.50
2023-03-02T11:15:40.646Z,25.83
2023-03-02T11:18:21.472Z,27.13
2023-03-02T11:20:54.605Z,24.77
2023-03-02T11:23:33.668Z,26.58
2023-03-02T11:26:16.452Z,25.08
2023-03-02T11:28:51.123Z,27.65
2023-03-02T11:31:29.642Z,25.58
2023-03-02T11:34:17.616Z,27.65
2023-03-02T11:36:59.579Z,27.00
2023-03-02T11:39:46.464Z,26.58
2023-03-02T11:42:26.693Z,25.10
2023-03-02T11:44:55.045Z,26.98
2023-03-02T11:47:24.391Z,25.90
2023-03-02T11:49:57.147Z,24.52
2023-03-02T11:52:28.977Z,24.23
2023-03-02T11:55:01.107Z,23.60
2023-03-02T11:57:38.567Z,24.02
2023-03-02T12:00:20.114Z,25.38
2023-03-02T12:02:59.457Z,27.00
2023-03-02T12:05:30.625Z,24.48
2023-03-02T12:08:00.118Z,23.88
2023-03-02T12:10:36.543Z,27.45
2023-03-02T12:13:18.588Z,23.60
2023-03-02T12:15:48.310Z,23.55
2023-03-02T12:18:32.545Z,22.55
2023-03-02T12:21:06.878Z,25.20
2023-03-02T12:23:38.332Z,24.67
2023-03-02T12:26:23.364Z,21.88
2023-03-02T12:29:07.265Z,24.20
2023-03-02T12:31:46.515Z,19.33
2023-03-02T12:34:35.144Z,19.13
2023-03-02T12:37:14.613Z,20.40
2023-03-02T12:40:14.590Z,20.10
2023-03-02T12:42:52.688Z,20.52
2023-03-02T12:45:39.722Z,18.73
2023-03-02T12:48:25.583Z,20.60
2023-03-02T12:50:57.234Z,19.15
2023-03-02T12:53:25.464Z,21.83
2023-03-02T12:55:53.728Z,21.25
2023-03-02T12:58:25.099Z,18.95
2023-03-02T13:00:57.011Z,18.17
2023-03-02T13:03:26.416Z,19.85
2023-03-02T13:06:05.565Z,29.92
2023-03-02T13:08:34.620Z,25.58
2023-03-02T13:11:03.696Z,27.70
2023-03-02T13:13:38.513Z,25.92
2023-03-02T13:16:21.452Z,28.42
2023-03-02T13:18:53.853Z,29.35
2023-03-02T13:21:26.095Z,25.60
2023-03-02T13:23:54.284Z,29.77
2023-03-02T13:26:28.906Z,27.83
2023-03-02T13:29:06.731Z,29.42
2023-03-02T13:31:36.669Z,30.55
2023-03-02T13:34:05.332Z,27.63
2023-03-02T13:36:39.183Z,26.50
2023-03-02T13:39:19.082Z,28.33
2023-03-02T13:41:56.022Z,25.05
2023-03-02T13:44:30.243Z,25.17
2023-03-02T13:47:00.899Z,25.70
2023-03-02T13:49:32.542Z,26.80
2023-03-02T13:52:08.036Z,25.67
2023-03-02T13:54:38.175Z,24.90
2023-03-02T13:57:07.522Z,25.98
2023-03-02T13:59:37.481Z,26.30
2023-03-02T14:02:22.127Z,25.98
2023-03-02T14:04:50.501Z,25.70
2023-03-02T14:07:19.210Z,27.75
2023-03-02T14:09:47.943Z,30.25
2023-03-02T14:12:29.427Z,26.27
2023-03-02T14:14:59.873Z,26.23
2023-03-02T14:17:29.724Z,23.85
2023-03-02T14:19:58.889Z,29.08
2023-03-02T14:22:29.667Z,28.73
2023-03-02T14:25:02.921Z,25.15
2023-03-02T14:27:34.746Z,26.17
2023-03-02T14:30:04.928Z,25.42
2023-03-02T14:32:34.993Z,28.48
2023-03-02T14:35:05.586Z,26.50
2023-03-02T14:37:33.785Z,26.90
2023-03-02T14:40:02.201Z,25.33
2023-03-02T14:42:30.496Z,22.75
2023-03-02T14:44:59.914Z,25.27
2023-03-02T14:47:28.233Z,27.08
2023-03-02T14:49:57.827Z,30.77
2023-03-02T14:52:33.098Z,33.78
2023-03-02T14:55:06.925Z,32.55
2023-03-02T14:57:38.947Z,32.72
2023-03-02T15:00:10.288Z,29.48
2023-03-02T15:02:38.666Z,32.30
2023-03-02T15:05:10.006Z,38.35
2023-03-02T15:07:39.057Z,35.70
2023-03-02T15:10:09.733Z,36.75
2023-03-02T15:12:38.396Z,35.40
2023-03-02T15:15:08.068Z,36.53
2023-03-02T15:17:36.358Z,33.70
2023-03-02T15:20:06.180Z,33.78
2023-03-02T15:22:36.084Z,38.88
2023-03-02T15:25:05.632Z,31.85
2023-03-02T15:27:33.855Z,39.08
2023-03-02T15:30:02.030Z,36.67
2023-03-02T15:32:30.291Z,33.38
2023-03-02T15:34:58.515Z,36.70
2023-03-02T15:37:26.910Z,39.45
2023-03-02T15:39:57.683Z,37.15
2023-03-02T15:42:26.134Z,35.45
2023-03-02T15:44:54.452Z,34.88
2023-03-02T15:47:23.035Z,35.78
2023-03-02T15:49:51.264Z,36.00
2023-03-02T15:52:21.025Z,38.13
2023-03-02T15:54:49.465Z,39.72
2023-03-02T15:57:19.076Z,38.05
2023-03-02T15:59:47.921Z,37.95
2023-03-02T16:02:17.709Z,36.15
2023-03-02T16:04:48.766Z,34.95
2023-03-02T16:07:17.113Z,36.53
2023-03-02T16:09:46.761Z,37.28
2023-03-02T16:12:17.260Z,37.90
2023-03-02T16:14:47.009Z,37.40
2023-03-02T16:17:17.788Z,38.83
2023-03-02T16:19:46.246Z,35.45
2023-03-02T16:22:14.609Z,32.08
2023-03-02T16:24:42.993Z,35.13
2023-03-02T16:27:11.354Z,36.13
2023-03-02T16:29:39.689Z,38.78
2023-03-02T16:32:09.375Z,35.97
2023-03-02T16:34:46.838Z,36.05
2023-03-02T16:37:15.034Z,40.13
2023-03-02T16:39:43.379Z,39.20
2023-03-02T16:42:11.581Z,42.75
2023-03-02T16:44:40.205Z,38.10
2023-03-02T16:47:09.896Z,41.95
2023-03-02T16:49:38.174Z,39.28
2023-03-02T16:52:09.285Z,37.42
2023-03-02T16:54:38.007Z,41.83
2023-03-02T16:57:09.495Z,47.95
2023-03-02T16:59:37.826Z,38.30
2023-03-02T17:02:10.841Z,42.80
2023-03-02T17:04:39.274Z,37.35
2023-03-02T17:07:08.093Z,40.28
2023-03-02T17:09:37.794Z,38.38
2023-03-02T17:12:07.109Z,36.92
2023-03-02T17:14:35.395Z,39.50
2023-03-02T17:17:03.616Z,36.10
2023-03-02T17:19:33.217Z,42.88
2023-03-02T17:22:02.646Z,39.25
2023-03-02T17:24:33.026Z,43.63
2023-03-02T17:27:01.383Z,42.90
2023-03-02T17:29:29.769Z,38.15
2023-03-02T17:31:58.047Z,38.10
2023-03-02T17:34:30.623Z,37.05
2023-03-02T17:37:00.902Z,38.85
2023-03-02T17:39:30.869Z,42.40
2023-03-02T17:41:59.190Z,40.75
2023-03-02T17:44:27.829Z,37.25
2023-03-02T17:46:56.441Z,35.17
2023-03-02T17:49:24.978Z,38.55
2023-03-02T17:51:53.239Z,38.65
2023-03-02T17:54:23.087Z,42.20
2023-03-02T17:56:51.394Z,38.90
2023-03-02T17:59:19.906Z,37.45
2023-03-02T18:01:50.932Z,36.85
2023-03-02T18:04:19.380Z,40.92
2023-03-02T18:06:47.872Z,40.17
2023-03-02T18:09:18.829Z,36.75
2023-03-02T18:11:48.834Z,34.13
2023-03-02T18:14:20.822Z,36.15
2023-03-02T18:16:49.176Z,37.95
2023-03-02T18:19:19.217Z,37.92
2023-03-02T18:21:47.525Z,35.88
2023-03-02T18:24:15.790Z,38.58
2023-03-02T18:26:45.350Z,34.45
2023-03-02T18:29:14.996Z,40.03
2023-03-02T18:31:46.559Z,32.78
2023-03-02T18:34:17.048Z,35.75
2023-03-02T18:36:45.437Z,33.67
2023-03-02T18:39:14.253Z,35.97
2023-03-02T18:41:42.919Z,36.95
2023-03-02T18:44:11.575Z,40.78
2023-03-02T18:46:41.430Z,36.42
2023-03-02T18:49:09.786Z,37.55
2023-03-02T18:51:38.218Z,37.58
2023-03-02T18:54:09.533Z,37.67
2023-03-02T18:56:40.530Z,36.85
2023-03-02T18:59:09.830Z,39.70
2023-03-02T19:01:38.353Z,39.30
2023-03-02T19:04:08.785Z,35.20
2023-03-02T19:06:37.091Z,39.88
2023-03-02T19:09:05.622Z,43.53
2023-03-02T19:11:33.999Z,41.65
2023-03-02T19:14:02.273Z,39.55
2023-03-02T19:16:30.582Z,43.58
2023-03-02T19:18:59.069Z,45.15
2023-03-02T19:21:31.711Z,48.80
2023-03-02T19:24:01.646Z,45.28
2023-03-02T19:26:30.004Z,42.63
2023-03-02T19:28:58.362Z,49.03
2023-03-02T19:31:27.070Z,42.47
2023-03-02T19:33:55.492Z,47.70
2023-03-02T19:36:24.051Z,41.45
2023-03-02T19:38:53.797Z,45.80
2023-03-02T19:41:22.642Z,48.20
2023-03-02T19:43:51.494Z,44.47
2023-03-02T19:46:20.291Z,44.05
2023-03-02T19:48:49.456Z,43.97
2023-03-02T19:51:18.798Z,43.95
2023-03-02T19:53:49.248Z,39.97
2023-03-02T19:56:21.756Z,48.00
2023-03-02T19:58:53.875Z,42.13
2023-03-02T20:01:25.015Z,48.88
2023-03-02T20:03:54.829Z,41.15
2023-03-02T20:06:26.236Z,45.28
2023-03-02T20:08:54.651Z,45.00
2023-03-02T20:11:27.240Z,45.55
2023-03-02T20:13:57.430Z,42.63
2023-03-02T20:16:25.751Z,43.35
2023-03-02T20:18:54.608Z,45.03
2023-03-02T20:21:26.207Z,41.67
2023-03-02T20:23:55.041Z,44.60
2023-03-02T20:26:25.531Z,40.80
2023-03-02T20:28:56.176Z,46.55
2023-03-02T20:31:25.836Z,42.58
2023-03-02T20:33:57.458Z,41.83
2023-03-02T20:36:29.546Z,41.55
2023-03-02T20:39:01.767Z,40.95
2023-03-02T20:41:31.462Z,47.15
2023-03-02T20:43:59.831Z,44.47
2023-03-02T20:46:32.656Z,48.60
2023-03-02T20:49:01.271Z,45.83
2023-03-02T20:51:31.183Z,41.28
2023-03-02T20:53:59.926Z,42.42
2023-03-02T20:56:28.205Z,44.80
2023-03-02T20:58:58.145Z,44.55
2023-03-02T21:01:29.724Z,43.53
2023-03-02T21:03:58.263Z,40.90
2023-03-02T21:06:27.256Z,46.22
2023-03-02T21:08:55.522Z,46.15
2023-03-02T21:11:24.022Z,43.70
2023-03-02T21:13:52.501Z,49.08
2023-03-02T21:16:26.300Z,46.30
2023-03-02T21:18:56.193Z,44.42
2023-03-02T21:21:40.796Z,47.58
2023-03-02T21:24:10.902Z,45.67
2023-03-02T21:26:39.344Z,44.97
2023-03-02T21:29:09.434Z,44.65
2023-03-02T21:31:39.525Z,45.70
2023-03-02T21:34:08.475Z,52.25
2023-03-02T21:36:36.822Z,46.47
2023-03-02T21:39:08.273Z,47.83
2023-03-02T21:41:38.480Z,48.20
2023-03-02T21:44:07.986Z,49.88
2023-03-02T21:46:38.884Z,49.17
2023-03-02T21:49:08.086Z,46.22
2023-03-02T21:51:36.361Z,54.90
2023-03-02T21:54:04.832Z,50.72
2023-03-02T21:56:33.184Z,45.92
2023-03-02T21:59:01.535Z,48.00
2023-03-02T22:01:32.907Z,50.13
2023-03-02T22:04:02.867Z,50.42
2023-03-02T22:06:33.827Z,49.10
2023-03-02T22:09:02.547Z,50.22
2023-03-02T22:11:34.996Z,45.97
2023-03-02T22:14:12.203Z,50.28
2023-03-02T22:16:42.771Z,45.33
2023-03-02T22:19:26.436Z,46.70
2023-03-02T22:21:56.086Z,48.17
2023-03-02T22:24:27.912Z,42.13
2023-03-02T22:27:04.404Z,42.83
2023-03-02T22:29:39.153Z,42.90
2023-03-02T22:32:18.843Z,44.35
2023-03-02T22:34:52.014Z,42.58
2023-03-02T22:37:23.930Z,47.38
2023-03-02T22:39:57.467Z,44.88
2023-03-02T22:42:29.296Z,53.70
2023-03-02T22:45:13.167Z,52.33
2023-03-02T22:47:42.241Z,49.35
2023-03-02T22:50:23.442Z,40.35
2023-03-02T22:52:52.156Z,41.55
2023-03-02T22:55:39.764Z,43.63
2023-03-02T22:58:30.557Z,44.72
2023-03-02T23:01:00.108Z,41.47
2023-03-02T23:03:39.815Z,42.88
2023-03-02T23:06:31.369Z,41.60
2023-03-02T23:09:02.651Z,44.63
2023-03-02T23:11:35.991Z,40.67
2023-03-02T23:14:16.500Z,41.13
2023-03-02T23:16:45.060Z,40.70
2023-03-02T23:19:13.414Z,37.03
2023-03-02T23:21:48.072Z,39.95
2023-03-02T23:24:17.783Z,36.95
2023-03-02T23:26:46.724Z,40.92
2023-03-02T23:29:15.577Z,36.60
2023-03-02T23:31:44.820Z,39.03
2023-03-02T23:34:14.399Z,36.63
2023-03-02T23:36:44.566Z,34.97
2023-03-02T23:39:13.303Z,39.13
2023-03-02T23:41:42.215Z,31.17
2023-03-02T23:44:11.617Z,29.70
2023-03-02T23:46:39.880Z,31.42
2023-03-02T23:49:08.150Z,32.33
2023-03-02T23:51:36.391Z,31.95
2023-03-02T23:54:07.627Z,30.08
2023-03-02T23:56:36.327Z,28.55
2023-03-02T23:59:08.602Z,29.50
